Flight Track Log - Related Links

Times and Time Zones

All times are in EDT time to prevent confusion due to time zone crossing. See the AWE1578 flight status page for this flight to view local times or setup timezone preferences in your user account.

Time Position Orientation Groundspeed Altitude Reporting Facility
EDT Latitude Longitude Course Direction KTS MPH feet Rate Location/Type
Sat 02:54:42 PM 35.2550 -80.9330 North 186 214 2,900  Level FlightAware ADS-B
Sat 02:54:52 PM 35.2670 -80.9270 22° Northeast 206 237 3,400 2,400 Climbing FlightAware ADS-B
Sat 02:55:22 PM 35.2960 -80.9100 26° Northeast 257 296 4,500 2,533 Climbing FlightAware ADS-B
Sat 02:55:37 PM 35.3060 -80.8940 53° Northeast 249 287 5,300 3,600 Climbing FlightAware ADS-B
Sat 02:55:47 PM 35.3080 -80.8810 79° East 243 280 6,000 3,257 Climbing FlightAware ADS-B
Sat 02:56:12 PM 35.3050 -80.8460 96° East 251 289 7,200 1,800 Climbing FlightAware ADS-B
Sat 02:56:47 PM 35.3010 -80.7940 95° East 256 295 7,800 600 Climbing FlightAware ADS-B
Sat 02:57:12 PM 35.2990 -80.7620 94° East 254 292 7,800 109 Level FlightAware ADS-B
Sat 02:57:42 PM 35.2970 -80.7180 93° East 254 292 7,900 109 Climbing FlightAware ADS-B
Sat 02:58:07 PM 35.2950 -80.6800 94° East 257 296 7,900 1,200 Level FlightAware ADS-B
Sat 02:58:32 PM 35.2990 -80.6440 82° East 265 305 8,900 2,850 Climbing FlightAware ADS-B
Sat 02:58:47 PM 35.3030 -80.6250 76° East 268 308 9,800 2,945 Climbing FlightAware ADS-B
Sat 02:59:27 PM 35.3170 -80.5610 75° East 306 352 11,600 1,271 Climbing FlightAware ADS-B
Sat 03:00:12 PM 35.3320 -80.4920 75° East 306 352 11,600  Level FlightAware ADS-B
Sat 03:00:52 PM 35.3440 -80.4350 76° East 306 352 11,600 5,120 Level FlightAware ADS-B
Sat 03:01:27 PM 35.3683 -80.3553 76° East 349 402 18,000 5,806 Climbing Washington Center
Sat 03:02:25 PM 35.4094 -80.2150 70° East 373 429 20,600 2,581 Climbing Washington Center
Sat 03:04:26 PM 35.4822 -79.9436 72° East 430 495 25,700 2,122 Climbing Washington Center
Sat 03:05:26 PM 35.5189 -79.7900 74° East 451 519 27,000 2,331 Climbing Washington Center
Sat 03:06:27 PM 35.5578 -79.6336 73° East 459 528 30,400 622 Climbing Washington Center
Sat 03:11:52 PM 36.0270 -78.9680 73° East 477 549 31,000 97 Climbing FlightAware ADS-B
Sat 03:12:37 PM 36.1130 -78.9040 31° Northeast 476 548 31,000  Level FlightAware ADS-B
Sat 03:13:17 PM 36.1920 -78.8460 31° Northeast 476 548 31,000  Level FlightAware ADS-B
Sat 03:13:57 PM 36.2670 -78.7900 31° Northeast 476 548 31,000  Level FlightAware ADS-B
Sat 03:14:42 PM 36.3500 -78.7280 31° Northeast 477 549 31,000  Level FlightAware ADS-B
Sat 03:15:22 PM 36.4220 -78.6740 31° Northeast 476 548 31,000  Level FlightAware ADS-B
Sat 03:16:22 PM 36.5300 -78.5920 31° Northeast 476 548 31,000  Level FlightAware ADS-B
Sat 03:17:17 PM 36.6350 -78.5130 31° Northeast 478 550 31,000  Level FlightAware ADS-B
Sat 03:17:57 PM 36.7000 -78.4650 31° Northeast 478 550 31,000  Level FlightAware ADS-B
Sat 03:18:37 PM 36.7640 -78.4170 31° Northeast 478 550 31,000  Level FlightAware ADS-B
Sat 03:19:17 PM 36.8290 -78.3680 31° Northeast 478 550 31,000  Level FlightAware ADS-B
Sat 03:19:57 PM 36.8930 -78.3200 31° Northeast 478 550 31,000  Level FlightAware ADS-B
Sat 03:20:47 PM 36.9740 -78.2600 31° Northeast 478 550 31,000  Level FlightAware ADS-B
Sat 03:22:02 PM 37.1800 -78.0970 32° Northeast 31,000  Level FlightAware ADS-B
Sat 03:22:42 PM 37.2580 -78.0370 31° Northeast 478 550 31,000  Level FlightAware ADS-B
Sat 03:23:22 PM 37.3320 -77.9800 31° Northeast 478 550 31,000  Level FlightAware ADS-B
Sat 03:24:07 PM 37.4200 -77.9110 32° Northeast 477 549 31,000  Level FlightAware ADS-B
Sat 03:24:47 PM 37.4950 -77.8530 32° Northeast 477 549 31,000  Level FlightAware ADS-B
Sat 03:25:27 PM 37.5690 -77.7900 34° Northeast 476 548 31,000  Level FlightAware ADS-B
Sat 03:26:12 PM 37.6460 -77.7210 35° Northeast 476 548 31,000  Level FlightAware ADS-B
Sat 03:26:52 PM 37.7170 -77.6560 36° Northeast 476 548 31,000  Level FlightAware ADS-B
Sat 03:27:37 PM 37.8000 -77.5800 36° Northeast 476 548 31,000  Level FlightAware ADS-B
Sat 03:28:17 PM 37.8710 -77.5160 35° Northeast 476 548 31,000  Level FlightAware ADS-B
Sat 03:28:57 PM 37.9430 -77.4490 36° Northeast 477 549 31,000  Level FlightAware ADS-B
Sat 03:29:17 PM 37.9806 -77.4145 36° Northeast 477 549 31,000  Level FlightAware ADS-B
Sat 03:29:57 PM 38.0528 -77.3481 36° Northeast 478 550 31,000  Level FlightAware ADS-B
Sat 03:30:28 PM 38.1078 -77.2972 36° Northeast 477 549 31,000  Level FlightAware ADS-B
Sat 03:30:58 PM 38.1617 -77.2474 36° Northeast 477 549 31,000  Level FlightAware ADS-B
Sat 03:31:29 PM 38.2165 -77.1966 36° Northeast 475 547 31,000  Level FlightAware ADS-B
Sat 03:32:04 PM 38.2779 -77.1397 36° Northeast 474 545 31,000  Level FlightAware ADS-B
Sat 03:32:38 PM 38.3388 -77.0828 36° Northeast 473 544 31,000 -92 Level FlightAware ADS-B
Sat 03:33:09 PM 38.3927 -77.0327 36° Northeast 469 540 30,900 -885 Descending FlightAware ADS-B
Sat 03:33:39 PM 38.4455 -76.9836 36° Northeast 459 528 30,100 -1,969 Descending FlightAware ADS-B
Sat 03:34:13 PM 38.5031 -76.9299 36° Northeast 450 518 28,800 -2,348 Descending FlightAware ADS-B
Sat 03:34:48 PM 38.5611 -76.8750 37° Northeast 439 505 27,400 -2,320 Descending FlightAware ADS-B
Sat 03:35:28 PM 38.6252 -76.8145 36° Northeast 428 493 25,900 -2,182 Descending FlightAware ADS-B
Sat 03:36:16 PM 38.6954 -76.7392 40° Northeast 411 473 24,200 -1,862 Descending FlightAware ADS-B
Sat 03:36:26 PM 38.7055 -76.7186 58° Northeast 410 472 24,100 -545 Descending FlightAware ADS-B
Sat 03:36:38 PM 38.7155 -76.6904 66° East 409 471 24,000 -136 Descending FlightAware ADS-B
Sat 03:37:10 PM 38.7319 -76.6178 74° East 405 466 24,000 -952 Level FlightAware ADS-B
Sat 03:37:41 PM 38.7472 -76.5450 75° East 413 475 23,000 -2,206 Descending FlightAware ADS-B
Sat 03:38:18 PM 38.7658 -76.4578 75° East 408 470 21,500 -2,418 Descending FlightAware ADS-B
Sat 03:38:48 PM 38.7800 -76.3881 75° East 400 460 20,300 -2,361 Descending FlightAware ADS-B
Sat 03:39:19 PM 38.7941 -76.3190 75° East 392 451 19,100 -2,206 Descending FlightAware ADS-B
Sat 03:39:56 PM 38.8108 -76.2380 75° East 384 442 17,800 -2,149 Descending FlightAware ADS-B
Sat 03:40:26 PM 38.8240 -76.1725 75° East 379 436 16,700 -1,935 Descending FlightAware ADS-B
Sat 03:40:58 PM 38.8377 -76.1052 75° East 358 412 15,800 -1,548 Descending FlightAware ADS-B
Sat 03:41:28 PM 38.8500 -76.0450 75° East 347 399 15,100 -1,100 Descending FlightAware ADS-B
Sat 03:41:58 PM 38.8621 -75.9853 75° East 340 391 14,700 -393 Descending FlightAware ADS-B
Sat 03:42:29 PM 38.8739 -75.9262 76° East 341 392 14,700 -393 Level FlightAware ADS-B
Sat 03:42:59 PM 38.8861 -75.8664 75° East 338 389 14,300 -1,277 Descending FlightAware ADS-B
Sat 03:43:16 PM 38.8966 -75.8349 67° East 338 389 13,700 -1,818 Descending FlightAware ADS-B
Sat 03:43:32 PM 38.9126 -75.8107 50° Northeast 339 390 13,300 -1,565 Descending FlightAware ADS-B
Sat 03:43:39 PM 38.9206 -75.8023 39° Northeast 341 392 13,100 -900 Descending FlightAware ADS-B
Sat 03:44:12 PM 38.9626 -75.7614 37° Northeast 343 395 12,700 -762 Descending FlightAware ADS-B
Sat 03:44:42 PM 39.0013 -75.7252 36° Northeast 338 389 12,300 -800 Descending FlightAware ADS-B
Sat 03:45:12 PM 39.0380 -75.6907 36° Northeast 333 383 11,900 -789 Descending FlightAware ADS-B
Sat 03:45:20 PM 39.0480 -75.6819 34° Northeast 334 384 11,800 -923 Descending FlightAware ADS-B
Sat 03:45:25 PM 39.0552 -75.6771 27° Northeast 335 386 11,700 -600 Descending FlightAware ADS-B
Sat 03:45:30 PM 39.0631 -75.6726 24° Northeast 335 386 11,700 -667 Level FlightAware ADS-B
Sat 03:45:43 PM 39.0816 -75.6661 15° North 335 386 11,500 -783 Descending FlightAware ADS-B
Sat 03:46:16 PM 39.1338 -75.6598 North 337 388 11,100 -831 Descending FlightAware ADS-B
Sat 03:46:48 PM 39.1814 -75.6544 North 322 371 10,600 -774 Descending FlightAware ADS-B
Sat 03:47:18 PM 39.2248 -75.6493 North 301 346 10,300 -667 Descending FlightAware ADS-B
Sat 03:47:42 PM 39.2567 -75.6455 North 287 330 10,000 -769 Descending FlightAware ADS-B
Sat 03:47:57 PM 39.2773 -75.6428 North 276 318 9,800 -857 Descending FlightAware ADS-B
Sat 03:48:03 PM 39.2839 -75.6407 14° North 271 312 9,700 -667 Descending FlightAware ADS-B
Sat 03:48:06 PM 39.2881 -75.6390 17° North 268 308 9,700  Level FlightAware ADS-B
Sat 03:48:14 PM 39.2972 -75.6338 24° Northeast 267 307 9,700  Level FlightAware ADS-B
Sat 03:48:22 PM 39.3050 -75.6280 30° Northeast 267 307 9,700  Level FlightAware ADS-B
Sat 03:48:37 PM 39.3213 -75.6140 34° Northeast 270 311 9,700  Level FlightAware ADS-B
Sat 03:48:53 PM 39.3374 -75.6002 34° Northeast 270 311 9,700  Level FlightAware ADS-B
Sat 03:49:02 PM 39.3465 -75.5923 34° Northeast 272 313 9,700  Level FlightAware ADS-B
Sat 03:49:07 PM 39.3522 -75.5880 30° Northeast 273 314 9,700  Level FlightAware ADS-B
Sat 03:49:11 PM 39.3573 -75.5851 24° Northeast 274 315 9,700  Level FlightAware ADS-B
Sat 03:49:17 PM 39.3647 -75.5829 13° North 276 318 9,700 -1,000 Level FlightAware ADS-B
Sat 03:49:29 PM 39.3801 -75.5830 360° North 279 321 9,400 -1,500 Descending FlightAware ADS-B
Sat 03:49:45 PM 39.4006 -75.5851 355° North 281 323 9,000 -1,548 Descending FlightAware ADS-B
Sat 03:50:00 PM 39.4208 -75.5870 356° North 280 322 8,600 -1,355 Descending FlightAware ADS-B
Sat 03:50:16 PM 39.4412 -75.5885 357° North 278 320 8,300 -1,400 Descending FlightAware ADS-B
Sat 03:50:30 PM 39.4584 -75.5901 356° North 277 319 7,900 -1,548 Descending FlightAware ADS-B
Sat 03:50:47 PM 39.4806 -75.5920 356° North 276 318 7,500 -1,313 Descending FlightAware ADS-B
Sat 03:51:02 PM 39.5000 -75.5937 356° North 274 315 7,200 -1,313 Descending FlightAware ADS-B
Sat 03:51:19 PM 39.5202 -75.5954 356° North 271 312 6,800 -1,313 Descending FlightAware ADS-B
Sat 03:51:34 PM 39.5396 -75.5973 356° North 267 307 6,500 -1,200 Descending FlightAware ADS-B
Sat 03:51:49 PM 39.5581 -75.5994 355° North 264 304 6,200 -1,235 Descending FlightAware ADS-B
Sat 03:52:08 PM 39.5805 -75.6016 356° North 261 300 5,800 -1,235 Descending FlightAware ADS-B
Sat 03:52:23 PM 39.5987 -75.6028 357° North 259 298 5,500 -1,355 Descending FlightAware ADS-B
Sat 03:52:39 PM 39.6177 -75.6043 357° North 260 299 5,100 -1,600 Descending FlightAware ADS-B
Sat 03:52:53 PM 39.6349 -75.6055 357° North 261 300 4,700 -1,579 Descending FlightAware ADS-B
Sat 03:52:58 PM 39.6407 -75.6059 357° North 260 299 4,600 -1,333 Descending FlightAware ADS-B
Sat 03:53:02 PM 39.6452 -75.6057 North 258 297 4,500 -857 Descending FlightAware ADS-B
Sat 03:53:05 PM 39.6491 -75.6049 North 256 295 4,500 -1,333 Level FlightAware ADS-B
Sat 03:53:11 PM 39.6555 -75.6019 20° North 254 292 4,300 -1,800 Descending FlightAware ADS-B
Sat 03:53:15 PM 39.6601 -75.5990 26° Northeast 253 291 4,200 -1,429 Descending FlightAware ADS-B
Sat 03:53:32 PM 39.6771 -75.5870 29° Northeast 252 290 3,800 -938 Descending FlightAware ADS-B
Sat 03:53:47 PM 39.6932 -75.5758 28° Northeast 251 289 3,700 -176 Descending FlightAware ADS-B
Sat 03:54:06 PM 39.7116 -75.5635 27° Northeast 239 275 3,700  Level FlightAware ADS-B
Sat 03:54:21 PM 39.7271 -75.5530 28° Northeast 235 270 3,700 -200 Level FlightAware ADS-B
Sat 03:54:36 PM 39.7406 -75.5434 29° Northeast 232 267 3,600 -444 Descending FlightAware ADS-B
Sat 03:54:48 PM 39.7520 -75.5341 32° Northeast 227 261 3,500 -643 Descending FlightAware ADS-B
Sat 03:55:04 PM 39.7657 -75.5225 33° Northeast 219 252 3,300 -621 Descending FlightAware ADS-B
Sat 03:55:17 PM 39.7762 -75.5139 32° Northeast 212 244 3,200 -621 Descending FlightAware ADS-B
Sat 03:55:33 PM 39.7892 -75.5035 32° Northeast 206 237 3,000 -581 Descending FlightAware ADS-B
Sat 03:55:48 PM 39.8017 -75.4936 31° Northeast 202 232 2,900 -444 Descending FlightAware ADS-B
Sat 03:56:00 PM 39.8113 -75.4859 32° Northeast 194 223 2,800 -444 Descending FlightAware ADS-B
Sat 03:56:15 PM 39.8224 -75.4764 33° Northeast 186 214 2,700 -200 Descending FlightAware ADS-B
Sat 03:56:30 PM 39.8321 -75.4677 35° Northeast 177 204 2,700  Level FlightAware ADS-B
Sat 03:56:33 PM 39.8340 -75.4658 38° Northeast 175 201 2,700  Level FlightAware ADS-B
Sat 03:56:37 PM 39.8362 -75.4627 47° Northeast 174 200 2,700 -857 Level FlightAware ADS-B
Sat 03:56:40 PM 39.8376 -75.4598 58° Northeast 171 197 2,600 -1,000 Descending FlightAware ADS-B
Sat 03:56:55 PM 39.8422 -75.4450 68° East 174 200 2,400 -857 Descending FlightAware ADS-B
Sat 03:57:01 PM 39.8440 -75.4392 68° East 174 200 2,300 -1,125 Descending FlightAware ADS-B
Sat 03:57:11 PM 39.8464 -75.4297 72° East 170 196 2,100 -900 Descending FlightAware ADS-B
Sat 03:57:21 PM 39.8483 -75.4201 76° East 165 190 2,000 -960 Descending FlightAware ADS-B
Sat 03:57:36 PM 39.8510 -75.4054 77° East 162 186 1,700 -1,000 Descending FlightAware ADS-B
Sat 03:57:45 PM 39.8526 -75.3972 76° East 160 184 1,600 -750 Descending FlightAware ADS-B
Sat 03:58:00 PM 39.8553 -75.3836 75° East 158 182 1,400 -800 Descending FlightAware ADS-B
Sat 03:58:15 PM 39.8580 -75.3697 76° East 148 170 1,200 -750 Descending FlightAware ADS-B
Sat 03:58:32 PM 39.8606 -75.3564 76° East 134 154 1,000 -750 Descending FlightAware ADS-B
Sat 03:58:47 PM 39.8629 -75.3450 75° East 124 143 800 -774 Descending FlightAware ADS-B
Sat 03:59:03 PM 39.8652 -75.3328 76° East 129 148 600 -563 Descending FlightAware ADS-B
Sat 03:59:19 PM 39.8675 -75.3211 76° East 128 147 500 -563 Descending FlightAware ADS-B
Sat 03:59:35 PM 39.8697 -75.3093 76° East 124 143 300 -750 Descending FlightAware ADS-B
Sat 04:00:17 PM 39.8750 -75.2820 76° East 129 148 -429 Descending FlightAware ADS-B
Sat 04:00:42 PM 39.8790 -75.2650 73° East 129 148  Level FlightAware ADS-B

Login

Don't have an account? Register now (free) for customized features, flight alerts, and more!